< < Back
Terminal Aerodrome Forecast


Current Version              Previous Versions:   1  2  3  4  5  6  7  8  9  

Terminal Aerodrome Forecast

023
FTUS42 KFFC 301728
TAFMCN
TAF
KMCN 301728Z 3018/0118 24010KT P6SM VCSH BKN050
      TEMPO 3018/3022 VRB15G25KT 4SM TSRA BKN035CB
     FM010100 27008KT P6SM BKN060
     FM010600 26006KT 4SM BR SCT010 SCT060=

Latest METAR

869
SAUS80 KWBC 010600 RRD
MTRMCN
METAR KMCN 010553Z AUTO 25005KT 10SM FEW070 SCT090 22/18 A3004 RMK AO2
SLP166 T02220183 10250 20222 50006 TSNO


USA.gov is the U.S. government's official web portal to all federal, state and local government web resources and services.